sensor_id;sensor_type;location;lat;lon;timestamp;P1;durP1;ratioP1;P2;durP2;ratioP2
20729;SDS011;10526;50.850;12.928;2023-05-20T00:01:51;19.48;;;11.90;;
20729;SDS011;10526;50.850;12.928;2023-05-20T00:06:13;20.38;;;12.70;;
20729;SDS011;10526;50.850;12.928;2023-05-20T00:10:35;21.30;;;11.55;;
20729;SDS011;10526;50.850;12.928;2023-05-20T00:14:58;21.60;;;12.20;;
20729;SDS011;10526;50.850;12.928;2023-05-20T00:19:20;23.85;;;12.77;;
20729;SDS011;10526;50.850;12.928;2023-05-20T00:23:42;23.48;;;13.10;;
20729;SDS011;10526;50.850;12.928;2023-05-20T00:28:05;24.25;;;13.05;;
20729;SDS011;10526;50.850;12.928;2023-05-20T00:32:27;25.45;;;14.10;;
20729;SDS011;10526;50.850;12.928;2023-05-20T00:36:49;23.27;;;13.20;;
20729;SDS011;10526;50.850;12.928;2023-05-20T00:41:12;24.65;;;14.65;;
20729;SDS011;10526;50.850;12.928;2023-05-20T00:45:35;22.95;;;13.43;;
20729;SDS011;10526;50.850;12.928;2023-05-20T00:49:58;23.27;;;14.15;;
20729;SDS011;10526;50.850;12.928;2023-05-20T00:54:21;23.88;;;14.25;;
20729;SDS011;10526;50.850;12.928;2023-05-20T00:58:44;29.20;;;15.40;;
20729;SDS011;10526;50.850;12.928;2023-05-20T01:03:06;23.88;;;14.43;;
20729;SDS011;10526;50.850;12.928;2023-05-20T01:07:29;25.67;;;14.82;;
20729;SDS011;10526;50.850;12.928;2023-05-20T01:11:54;27.27;;;17.00;;
20729;SDS011;10526;50.850;12.928;2023-05-20T01:16:25;29.02;;;16.17;;
20729;SDS011;10526;50.850;12.928;2023-05-20T01:20:50;27.90;;;17.63;;
20729;SDS011;10526;50.850;12.928;2023-05-20T01:25:16;26.45;;;16.52;;
20729;SDS011;10526;50.850;12.928;2023-05-20T01:29:39;26.20;;;16.30;;
20729;SDS011;10526;50.850;12.928;2023-05-20T01:34:03;28.83;;;17.25;;
20729;SDS011;10526;50.850;12.928;2023-05-20T01:38:26;31.42;;;18.17;;
20729;SDS011;10526;50.850;12.928;2023-05-20T01:42:48;28.70;;;18.25;;
20729;SDS011;10526;50.850;12.928;2023-05-20T01:47:15;30.67;;;20.10;;
20729;SDS011;10526;50.850;12.928;2023-05-20T01:51:37;33.25;;;20.63;;
20729;SDS011;10526;50.850;12.928;2023-05-20T01:55:59;35.85;;;22.67;;
20729;SDS011;10526;50.850;12.928;2023-05-20T02:00:21;37.85;;;23.08;;
20729;SDS011;10526;50.850;12.928;2023-05-20T02:04:44;35.58;;;23.58;;
20729;SDS011;10526;50.850;12.928;2023-05-20T02:09:09;38.38;;;23.55;;
20729;SDS011;10526;50.850;12.928;2023-05-20T02:13:32;39.70;;;25.58;;
20729;SDS011;10526;50.850;12.928;2023-05-20T02:17:54;37.40;;;24.13;;
20729;SDS011;10526;50.850;12.928;2023-05-20T02:22:18;39.20;;;23.55;;
20729;SDS011;10526;50.850;12.928;2023-05-20T02:26:41;42.72;;;25.58;;
20729;SDS011;10526;50.850;12.928;2023-05-20T02:31:04;41.80;;;26.52;;
20729;SDS011;10526;50.850;12.928;2023-05-20T02:35:27;42.22;;;27.00;;
20729;SDS011;10526;50.850;12.928;2023-05-20T02:39:49;43.45;;;27.83;;
20729;SDS011;10526;50.850;12.928;2023-05-20T02:44:11;47.13;;;27.85;;
20729;SDS011;10526;50.850;12.928;2023-05-20T02:48:34;47.47;;;30.63;;
20729;SDS011;10526;50.850;12.928;2023-05-20T02:52:56;46.33;;;28.77;;
20729;SDS011;10526;50.850;12.928;2023-05-20T02:57:19;53.08;;;31.65;;
20729;SDS011;10526;50.850;12.928;2023-05-20T03:01:41;60.10;;;34.63;;
20729;SDS011;10526;50.850;12.928;2023-05-20T03:06:03;66.47;;;40.75;;
20729;SDS011;10526;50.850;12.928;2023-05-20T03:10:25;57.53;;;33.58;;
20729;SDS011;10526;50.850;12.928;2023-05-20T03:14:47;58.00;;;33.47;;
20729;SDS011;10526;50.850;12.928;2023-05-20T03:19:10;60.75;;;36.55;;
20729;SDS011;10526;50.850;12.928;2023-05-20T03:23:33;63.83;;;36.83;;
20729;SDS011;10526;50.850;12.928;2023-05-20T03:27:55;69.22;;;41.30;;
20729;SDS011;10526;50.850;12.928;2023-05-20T03:32:21;57.30;;;36.50;;
20729;SDS011;10526;50.850;12.928;2023-05-20T03:36:44;65.03;;;37.85;;
20729;SDS011;10526;50.850;12.928;2023-05-20T03:41:06;65.40;;;39.10;;
20729;SDS011;10526;50.850;12.928;2023-05-20T03:45:29;58.55;;;36.38;;
20729;SDS011;10526;50.850;12.928;2023-05-20T03:49:58;52.42;;;31.55;;
20729;SDS011;10526;50.850;12.928;2023-05-20T03:54:20;52.78;;;32.55;;
20729;SDS011;10526;50.850;12.928;2023-05-20T03:58:45;45.33;;;28.73;;
20729;SDS011;10526;50.850;12.928;2023-05-20T04:03:07;45.05;;;28.10;;
20729;SDS011;10526;50.850;12.928;2023-05-20T04:07:30;44.50;;;27.45;;
20729;SDS011;10526;50.850;12.928;2023-05-20T04:11:53;46.67;;;27.25;;
20729;SDS011;10526;50.850;12.928;2023-05-20T04:16:15;43.72;;;26.77;;
20729;SDS011;10526;50.850;12.928;2023-05-20T04:20:37;45.22;;;30.33;;
20729;SDS011;10526;50.850;12.928;2023-05-20T04:25:02;42.90;;;27.27;;
20729;SDS011;10526;50.850;12.928;2023-05-20T04:29:25;41.10;;;26.90;;
20729;SDS011;10526;50.850;12.928;2023-05-20T04:33:49;44.13;;;27.65;;
20729;SDS011;10526;50.850;12.928;2023-05-20T04:38:12;38.38;;;25.83;;
20729;SDS011;10526;50.850;12.928;2023-05-20T04:42:34;36.92;;;25.50;;
20729;SDS011;10526;50.850;12.928;2023-05-20T04:46:58;38.53;;;25.63;;
20729;SDS011;10526;50.850;12.928;2023-05-20T04:51:20;43.33;;;26.40;;
20729;SDS011;10526;50.850;12.928;2023-05-20T04:55:45;40.67;;;26.65;;
20729;SDS011;10526;50.850;12.928;2023-05-20T05:00:07;41.08;;;25.67;;
20729;SDS011;10526;50.850;12.928;2023-05-20T05:04:33;38.00;;;24.80;;
20729;SDS011;10526;50.850;12.928;2023-05-20T05:08:55;37.90;;;23.98;;
20729;SDS011;10526;50.850;12.928;2023-05-20T05:13:19;35.97;;;23.20;;
20729;SDS011;10526;50.850;12.928;2023-05-20T05:17:42;38.67;;;23.67;;
20729;SDS011;10526;50.850;12.928;2023-05-20T05:22:05;36.22;;;23.70;;
20729;SDS011;10526;50.850;12.928;2023-05-20T05:26:28;38.72;;;25.48;;
20729;SDS011;10526;50.850;12.928;2023-05-20T05:30:52;39.33;;;27.52;;
20729;SDS011;10526;50.850;12.928;2023-05-20T05:35:16;37.00;;;24.55;;
20729;SDS011;10526;50.850;12.928;2023-05-20T05:39:38;38.95;;;24.48;;
20729;SDS011;10526;50.850;12.928;2023-05-20T05:44:01;35.35;;;22.77;;
20729;SDS011;10526;50.850;12.928;2023-05-20T05:48:25;33.63;;;22.88;;
20729;SDS011;10526;50.850;12.928;2023-05-20T05:52:47;33.10;;;22.05;;
20729;SDS011;10526;50.850;12.928;2023-05-20T05:57:09;35.10;;;21.40;;
20729;SDS011;10526;50.850;12.928;2023-05-20T06:01:33;35.72;;;23.50;;
20729;SDS011;10526;50.850;12.928;2023-05-20T06:05:55;36.60;;;22.23;;
20729;SDS011;10526;50.850;12.928;2023-05-20T06:10:18;38.60;;;24.35;;
20729;SDS011;10526;50.850;12.928;2023-05-20T06:14:40;37.60;;;22.00;;
20729;SDS011;10526;50.850;12.928;2023-05-20T06:19:02;37.25;;;22.80;;
20729;SDS011;10526;50.850;12.928;2023-05-20T06:23:25;30.98;;;20.65;;
20729;SDS011;10526;50.850;12.928;2023-05-20T06:27:51;32.63;;;20.75;;
20729;SDS011;10526;50.850;12.928;2023-05-20T06:32:15;31.13;;;21.10;;
20729;SDS011;10526;50.850;12.928;2023-05-20T06:36:38;31.23;;;20.48;;
20729;SDS011;10526;50.850;12.928;2023-05-20T06:41:02;32.40;;;20.45;;
20729;SDS011;10526;50.850;12.928;2023-05-20T06:45:25;33.25;;;20.88;;
20729;SDS011;10526;50.850;12.928;2023-05-20T06:49:50;30.25;;;20.15;;
20729;SDS011;10526;50.850;12.928;2023-05-20T06:54:12;31.27;;;19.80;;
20729;SDS011;10526;50.850;12.928;2023-05-20T06:58:35;28.95;;;19.20;;
20729;SDS011;10526;50.850;12.928;2023-05-20T07:02:57;28.65;;;19.20;;
20729;SDS011;10526;50.850;12.928;2023-05-20T07:07:20;29.58;;;19.05;;
20729;SDS011;10526;50.850;12.928;2023-05-20T07:11:42;25.42;;;16.67;;
20729;SDS011;10526;50.850;12.928;2023-05-20T07:16:04;26.40;;;16.45;;
20729;SDS011;10526;50.850;12.928;2023-05-20T07:20:29;25.20;;;14.68;;
20729;SDS011;10526;50.850;12.928;2023-05-20T07:24:56;22.23;;;13.65;;
20729;SDS011;10526;50.850;12.928;2023-05-20T07:29:20;19.98;;;12.65;;
20729;SDS011;10526;50.850;12.928;2023-05-20T07:33:43;22.30;;;14.40;;
20729;SDS011;10526;50.850;12.928;2023-05-20T07:38:06;23.25;;;14.73;;
20729;SDS011;10526;50.850;12.928;2023-05-20T07:42:28;23.67;;;16.35;;
20729;SDS011;10526;50.850;12.928;2023-05-20T07:46:53;20.60;;;13.77;;
20729;SDS011;10526;50.850;12.928;2023-05-20T07:51:16;21.98;;;14.35;;
20729;SDS011;10526;50.850;12.928;2023-05-20T07:55:39;21.40;;;14.23;;
20729;SDS011;10526;50.850;12.928;2023-05-20T08:00:01;20.27;;;13.82;;
20729;SDS011;10526;50.850;12.928;2023-05-20T08:04:24;21.42;;;13.70;;
20729;SDS011;10526;50.850;12.928;2023-05-20T08:08:49;21.13;;;13.57;;
20729;SDS011;10526;50.850;12.928;2023-05-20T08:13:19;18.40;;;12.95;;
20729;SDS011;10526;50.850;12.928;2023-05-20T08:17:42;19.60;;;12.50;;
20729;SDS011;10526;50.850;12.928;2023-05-20T08:22:04;21.02;;;12.57;;
20729;SDS011;10526;50.850;12.928;2023-05-20T08:26:28;21.15;;;13.88;;
20729;SDS011;10526;50.850;12.928;2023-05-20T08:30:50;18.02;;;12.18;;
20729;SDS011;10526;50.850;12.928;2023-05-20T08:35:12;21.23;;;12.93;;
20729;SDS011;10526;50.850;12.928;2023-05-20T08:39:35;20.95;;;12.60;;
20729;SDS011;10526;50.850;12.928;2023-05-20T08:43:59;19.88;;;12.52;;
20729;SDS011;10526;50.850;12.928;2023-05-20T08:48:24;19.88;;;12.93;;
20729;SDS011;10526;50.850;12.928;2023-05-20T08:52:48;21.15;;;13.13;;
20729;SDS011;10526;50.850;12.928;2023-05-20T08:57:11;21.30;;;13.05;;
20729;SDS011;10526;50.850;12.928;2023-05-20T09:01:35;21.63;;;12.93;;
20729;SDS011;10526;50.850;12.928;2023-05-20T09:06:06;20.48;;;12.40;;
20729;SDS011;10526;50.850;12.928;2023-05-20T09:10:29;20.15;;;12.50;;
20729;SDS011;10526;50.850;12.928;2023-05-20T09:14:51;18.40;;;11.98;;
20729;SDS011;10526;50.850;12.928;2023-05-20T09:19:14;18.90;;;12.48;;
20729;SDS011;10526;50.850;12.928;2023-05-20T09:23:36;18.90;;;12.88;;
20729;SDS011;10526;50.850;12.928;2023-05-20T09:27:59;19.58;;;12.10;;
20729;SDS011;10526;50.850;12.928;2023-05-20T09:32:22;18.50;;;12.75;;
20729;SDS011;10526;50.850;12.928;2023-05-20T09:36:49;21.75;;;13.10;;
20729;SDS011;10526;50.850;12.928;2023-05-20T09:41:11;22.38;;;14.25;;
20729;SDS011;10526;50.850;12.928;2023-05-20T09:45:36;21.33;;;13.60;;
20729;SDS011;10526;50.850;12.928;2023-05-20T09:49:58;22.23;;;14.20;;
20729;SDS011;10526;50.850;12.928;2023-05-20T09:54:23;19.77;;;13.35;;
20729;SDS011;10526;50.850;12.928;2023-05-20T09:58:47;20.85;;;13.93;;
20729;SDS011;10526;50.850;12.928;2023-05-20T10:03:11;21.45;;;15.05;;
20729;SDS011;10526;50.850;12.928;2023-05-20T10:21:30;19.67;;;12.82;;
20729;SDS011;10526;50.850;12.928;2023-05-20T10:25:53;18.58;;;13.13;;
20729;SDS011;10526;50.850;12.928;2023-05-20T10:30:19;22.90;;;14.55;;
20729;SDS011;10526;50.850;12.928;2023-05-20T10:34:46;21.73;;;14.07;;
20729;SDS011;10526;50.850;12.928;2023-05-20T10:39:13;20.60;;;15.20;;
20729;SDS011;10526;50.850;12.928;2023-05-20T10:43:39;18.17;;;12.30;;
20729;SDS011;10526;50.850;12.928;2023-05-20T10:48:01;20.13;;;13.63;;
20729;SDS011;10526;50.850;12.928;2023-05-20T10:52:24;20.55;;;13.65;;
20729;SDS011;10526;50.850;12.928;2023-05-20T10:56:50;20.05;;;13.63;;
20729;SDS011;10526;50.850;12.928;2023-05-20T11:01:14;21.67;;;12.90;;
20729;SDS011;10526;50.850;12.928;2023-05-20T11:05:39;25.83;;;13.68;;
20729;SDS011;10526;50.850;12.928;2023-05-20T11:10:01;24.08;;;13.52;;
20729;SDS011;10526;50.850;12.928;2023-05-20T11:14:30;21.00;;;13.20;;
20729;SDS011;10526;50.850;12.928;2023-05-20T11:18:52;19.30;;;12.77;;
20729;SDS011;10526;50.850;12.928;2023-05-20T11:23:14;20.90;;;13.95;;
20729;SDS011;10526;50.850;12.928;2023-05-20T11:27:39;22.35;;;13.38;;
20729;SDS011;10526;50.850;12.928;2023-05-20T11:32:02;20.90;;;13.45;;
20729;SDS011;10526;50.850;12.928;2023-05-20T11:36:24;22.35;;;15.13;;
20729;SDS011;10526;50.850;12.928;2023-05-20T11:40:52;22.52;;;15.02;;
20729;SDS011;10526;50.850;12.928;2023-05-20T11:45:17;28.35;;;15.85;;
20729;SDS011;10526;50.850;12.928;2023-05-20T11:49:39;25.65;;;12.60;;
20729;SDS011;10526;50.850;12.928;2023-05-20T11:54:01;22.23;;;15.02;;
20729;SDS011;10526;50.850;12.928;2023-05-20T11:58:28;24.58;;;14.93;;
20729;SDS011;10526;50.850;12.928;2023-05-20T12:02:51;25.23;;;15.70;;
20729;SDS011;10526;50.850;12.928;2023-05-20T12:07:13;24.38;;;14.90;;
20729;SDS011;10526;50.850;12.928;2023-05-20T12:11:36;23.52;;;14.93;;
20729;SDS011;10526;50.850;12.928;2023-05-20T12:16:02;22.55;;;15.15;;
20729;SDS011;10526;50.850;12.928;2023-05-20T12:20:26;21.05;;;13.95;;
20729;SDS011;10526;50.850;12.928;2023-05-20T12:24:49;24.05;;;14.13;;
20729;SDS011;10526;50.850;12.928;2023-05-20T12:29:14;21.02;;;13.93;;
20729;SDS011;10526;50.850;12.928;2023-05-20T12:33:36;23.33;;;12.40;;
20729;SDS011;10526;50.850;12.928;2023-05-20T12:37:59;22.13;;;12.75;;
20729;SDS011;10526;50.850;12.928;2023-05-20T12:42:21;19.85;;;12.15;;
20729;SDS011;10526;50.850;12.928;2023-05-20T12:46:44;23.15;;;13.75;;
20729;SDS011;10526;50.850;12.928;2023-05-20T12:51:06;19.70;;;13.80;;
20729;SDS011;10526;50.850;12.928;2023-05-20T12:55:28;21.98;;;13.90;;
20729;SDS011;10526;50.850;12.928;2023-05-20T12:59:53;20.63;;;13.07;;
20729;SDS011;10526;50.850;12.928;2023-05-20T13:04:16;21.63;;;13.07;;
20729;SDS011;10526;50.850;12.928;2023-05-20T13:08:38;19.90;;;13.30;;
20729;SDS011;10526;50.850;12.928;2023-05-20T13:13:00;21.70;;;13.85;;
20729;SDS011;10526;50.850;12.928;2023-05-20T13:17:23;21.48;;;13.43;;
20729;SDS011;10526;50.850;12.928;2023-05-20T13:21:45;21.70;;;12.70;;
20729;SDS011;10526;50.850;12.928;2023-05-20T13:26:08;22.75;;;12.77;;
20729;SDS011;10526;50.850;12.928;2023-05-20T13:30:31;24.10;;;13.73;;
20729;SDS011;10526;50.850;12.928;2023-05-20T13:34:53;20.98;;;13.43;;
20729;SDS011;10526;50.850;12.928;2023-05-20T13:39:17;22.02;;;13.45;;
20729;SDS011;10526;50.850;12.928;2023-05-20T13:43:39;22.80;;;12.75;;
20729;SDS011;10526;50.850;12.928;2023-05-20T13:48:02;17.85;;;11.38;;
20729;SDS011;10526;50.850;12.928;2023-05-20T13:52:24;20.85;;;12.18;;
20729;SDS011;10526;50.850;12.928;2023-05-20T13:56:46;22.17;;;12.48;;
20729;SDS011;10526;50.850;12.928;2023-05-20T14:01:09;24.42;;;13.52;;
20729;SDS011;10526;50.850;12.928;2023-05-20T14:05:32;24.13;;;12.63;;
20729;SDS011;10526;50.850;12.928;2023-05-20T14:09:55;19.77;;;11.43;;
20729;SDS011;10526;50.850;12.928;2023-05-20T14:14:17;19.95;;;12.93;;
20729;SDS011;10526;50.850;12.928;2023-05-20T14:18:39;19.38;;;11.85;;
20729;SDS011;10526;50.850;12.928;2023-05-20T14:23:02;19.50;;;12.32;;
20729;SDS011;10526;50.850;12.928;2023-05-20T14:27:24;17.73;;;11.95;;
20729;SDS011;10526;50.850;12.928;2023-05-20T14:31:46;19.13;;;11.25;;
20729;SDS011;10526;50.850;12.928;2023-05-20T14:36:09;18.77;;;11.55;;
20729;SDS011;10526;50.850;12.928;2023-05-20T14:40:31;21.10;;;12.68;;
20729;SDS011;10526;50.850;12.928;2023-05-20T14:44:54;19.25;;;12.40;;
20729;SDS011;10526;50.850;12.928;2023-05-20T14:49:16;17.77;;;12.10;;
20729;SDS011;10526;50.850;12.928;2023-05-20T14:53:38;19.95;;;12.80;;
20729;SDS011;10526;50.850;12.928;2023-05-20T14:58:00;23.67;;;13.23;;
20729;SDS011;10526;50.850;12.928;2023-05-20T15:02:22;19.00;;;12.25;;
20729;SDS011;10526;50.850;12.928;2023-05-20T15:06:44;20.50;;;12.90;;
20729;SDS011;10526;50.850;12.928;2023-05-20T15:11:07;20.85;;;12.95;;
20729;SDS011;10526;50.850;12.928;2023-05-20T15:15:29;19.88;;;12.20;;
20729;SDS011;10526;50.850;12.928;2023-05-20T15:19:52;18.98;;;12.88;;
20729;SDS011;10526;50.850;12.928;2023-05-20T15:24:14;18.40;;;12.43;;
20729;SDS011;10526;50.850;12.928;2023-05-20T15:28:37;21.27;;;12.63;;
20729;SDS011;10526;50.850;12.928;2023-05-20T15:33:00;23.10;;;12.80;;
20729;SDS011;10526;50.850;12.928;2023-05-20T15:37:23;21.00;;;13.07;;
20729;SDS011;10526;50.850;12.928;2023-05-20T15:41:45;19.58;;;12.98;;
20729;SDS011;10526;50.850;12.928;2023-05-20T15:46:10;21.40;;;12.82;;
20729;SDS011;10526;50.850;12.928;2023-05-20T15:50:33;20.52;;;12.00;;
20729;SDS011;10526;50.850;12.928;2023-05-20T15:54:57;19.67;;;12.60;;
20729;SDS011;10526;50.850;12.928;2023-05-20T15:59:20;20.88;;;13.02;;
20729;SDS011;10526;50.850;12.928;2023-05-20T16:03:42;17.77;;;11.95;;
20729;SDS011;10526;50.850;12.928;2023-05-20T16:08:07;18.73;;;12.48;;
20729;SDS011;10526;50.850;12.928;2023-05-20T16:12:29;21.58;;;12.95;;
20729;SDS011;10526;50.850;12.928;2023-05-20T16:16:52;20.77;;;12.10;;
20729;SDS011;10526;50.850;12.928;2023-05-20T16:21:14;24.48;;;13.48;;
20729;SDS011;10526;50.850;12.928;2023-05-20T16:25:36;19.30;;;11.93;;
20729;SDS011;10526;50.850;12.928;2023-05-20T16:29:58;20.17;;;12.10;;
20729;SDS011;10526;50.850;12.928;2023-05-20T16:34:21;23.52;;;13.55;;
20729;SDS011;10526;50.850;12.928;2023-05-20T16:38:43;20.58;;;12.52;;
20729;SDS011;10526;50.850;12.928;2023-05-20T16:47:53;22.02;;;14.43;;
20729;SDS011;10526;50.850;12.928;2023-05-20T16:52:16;26.20;;;14.10;;
20729;SDS011;10526;50.850;12.928;2023-05-20T16:56:39;22.60;;;13.55;;
20729;SDS011;10526;50.850;12.928;2023-05-20T17:01:02;22.95;;;14.07;;
20729;SDS011;10526;50.850;12.928;2023-05-20T17:05:25;23.00;;;13.73;;
20729;SDS011;10526;50.850;12.928;2023-05-20T17:09:47;21.58;;;13.35;;
20729;SDS011;10526;50.850;12.928;2023-05-20T17:14:09;26.05;;;15.20;;
20729;SDS011;10526;50.850;12.928;2023-05-20T17:18:31;22.73;;;14.60;;
20729;SDS011;10526;50.850;12.928;2023-05-20T17:22:54;26.00;;;14.73;;
20729;SDS011;10526;50.850;12.928;2023-05-20T17:27:16;25.17;;;15.02;;
20729;SDS011;10526;50.850;12.928;2023-05-20T17:31:39;24.80;;;14.05;;
20729;SDS011;10526;50.850;12.928;2023-05-20T17:36:01;22.73;;;14.65;;
20729;SDS011;10526;50.850;12.928;2023-05-20T17:40:24;26.75;;;18.55;;
20729;SDS011;10526;50.850;12.928;2023-05-20T17:44:46;24.50;;;15.13;;
20729;SDS011;10526;50.850;12.928;2023-05-20T17:49:08;24.67;;;15.23;;
20729;SDS011;10526;50.850;12.928;2023-05-20T17:53:30;24.52;;;14.90;;
20729;SDS011;10526;50.850;12.928;2023-05-20T17:57:52;25.85;;;15.88;;
20729;SDS011;10526;50.850;12.928;2023-05-20T18:02:15;26.08;;;17.08;;
20729;SDS011;10526;50.850;12.928;2023-05-20T18:06:37;24.10;;;16.40;;
20729;SDS011;10526;50.850;12.928;2023-05-20T18:10:59;26.23;;;15.85;;
20729;SDS011;10526;50.850;12.928;2023-05-20T18:15:21;25.05;;;16.73;;
20729;SDS011;10526;50.850;12.928;2023-05-20T18:19:43;25.52;;;16.23;;
20729;SDS011;10526;50.850;12.928;2023-05-20T18:24:06;24.90;;;17.35;;
20729;SDS011;10526;50.850;12.928;2023-05-20T18:28:28;25.70;;;16.77;;
20729;SDS011;10526;50.850;12.928;2023-05-20T18:32:50;28.52;;;17.90;;
20729;SDS011;10526;50.850;12.928;2023-05-20T18:37:13;28.77;;;20.20;;
20729;SDS011;10526;50.850;12.928;2023-05-20T18:41:36;25.98;;;17.52;;
20729;SDS011;10526;50.850;12.928;2023-05-20T18:46:07;29.40;;;18.27;;
20729;SDS011;10526;50.850;12.928;2023-05-20T18:50:29;32.50;;;19.63;;
20729;SDS011;10526;50.850;12.928;2023-05-20T18:54:52;30.38;;;18.83;;
20729;SDS011;10526;50.850;12.928;2023-05-20T18:59:14;28.77;;;20.52;;
20729;SDS011;10526;50.850;12.928;2023-05-20T19:03:36;31.10;;;19.00;;
20729;SDS011;10526;50.850;12.928;2023-05-20T19:07:58;28.67;;;19.17;;
20729;SDS011;10526;50.850;12.928;2023-05-20T19:12:21;28.27;;;18.60;;
20729;SDS011;10526;50.850;12.928;2023-05-20T19:16:43;30.27;;;19.73;;
20729;SDS011;10526;50.850;12.928;2023-05-20T19:21:06;31.00;;;19.38;;
20729;SDS011;10526;50.850;12.928;2023-05-20T19:25:28;29.08;;;19.55;;
20729;SDS011;10526;50.850;12.928;2023-05-20T19:29:50;30.50;;;19.50;;
20729;SDS011;10526;50.850;12.928;2023-05-20T19:34:14;31.02;;;19.85;;
20729;SDS011;10526;50.850;12.928;2023-05-20T19:38:36;30.88;;;19.80;;
20729;SDS011;10526;50.850;12.928;2023-05-20T19:42:58;29.05;;;19.45;;
20729;SDS011;10526;50.850;12.928;2023-05-20T19:47:20;32.55;;;20.80;;
20729;SDS011;10526;50.850;12.928;2023-05-20T19:51:43;31.75;;;20.85;;
20729;SDS011;10526;50.850;12.928;2023-05-20T19:56:05;34.33;;;21.35;;
20729;SDS011;10526;50.850;12.928;2023-05-20T20:00:28;67.00;;;41.28;;
20729;SDS011;10526;50.850;12.928;2023-05-20T20:04:50;29.10;;;19.92;;
20729;SDS011;10526;50.850;12.928;2023-05-20T20:09:12;30.50;;;20.38;;
20729;SDS011;10526;50.850;12.928;2023-05-20T20:13:34;29.90;;;20.85;;
20729;SDS011;10526;50.850;12.928;2023-05-20T20:17:56;32.05;;;20.15;;
20729;SDS011;10526;50.850;12.928;2023-05-20T20:22:19;29.42;;;20.02;;
20729;SDS011;10526;50.850;12.928;2023-05-20T20:26:41;33.30;;;20.80;;
20729;SDS011;10526;50.850;12.928;2023-05-20T20:31:04;30.27;;;19.92;;
20729;SDS011;10526;50.850;12.928;2023-05-20T20:35:26;30.67;;;20.77;;
20729;SDS011;10526;50.850;12.928;2023-05-20T20:39:48;29.52;;;19.05;;
20729;SDS011;10526;50.850;12.928;2023-05-20T20:44:10;37.50;;;21.58;;
20729;SDS011;10526;50.850;12.928;2023-05-20T20:48:40;32.45;;;20.45;;
20729;SDS011;10526;50.850;12.928;2023-05-20T20:53:05;32.53;;;22.50;;
20729;SDS011;10526;50.850;12.928;2023-05-20T20:57:28;33.30;;;21.13;;
20729;SDS011;10526;50.850;12.928;2023-05-20T21:01:52;32.70;;;21.23;;
20729;SDS011;10526;50.850;12.928;2023-05-20T21:06:15;31.30;;;22.20;;
20729;SDS011;10526;50.850;12.928;2023-05-20T21:10:37;31.98;;;22.60;;
20729;SDS011;10526;50.850;12.928;2023-05-20T21:14:59;32.38;;;22.35;;
20729;SDS011;10526;50.850;12.928;2023-05-20T21:19:22;33.88;;;23.60;;
20729;SDS011;10526;50.850;12.928;2023-05-20T21:23:45;32.30;;;22.65;;
20729;SDS011;10526;50.850;12.928;2023-05-20T21:28:08;37.65;;;23.70;;
20729;SDS011;10526;50.850;12.928;2023-05-20T21:32:30;34.08;;;23.38;;
20729;SDS011;10526;50.850;12.928;2023-05-20T21:36:53;33.92;;;23.05;;
20729;SDS011;10526;50.850;12.928;2023-05-20T21:41:17;37.42;;;25.13;;
20729;SDS011;10526;50.850;12.928;2023-05-20T21:45:39;35.03;;;24.65;;
20729;SDS011;10526;50.850;12.928;2023-05-20T21:50:01;35.75;;;24.25;;
20729;SDS011;10526;50.850;12.928;2023-05-20T21:54:23;36.10;;;24.70;;
20729;SDS011;10526;50.850;12.928;2023-05-20T21:58:45;37.10;;;24.63;;
20729;SDS011;10526;50.850;12.928;2023-05-20T22:03:08;37.30;;;24.55;;
20729;SDS011;10526;50.850;12.928;2023-05-20T22:07:30;33.30;;;23.80;;
20729;SDS011;10526;50.850;12.928;2023-05-20T22:11:53;35.95;;;25.25;;
20729;SDS011;10526;50.850;12.928;2023-05-20T22:16:16;44.88;;;26.25;;
20729;SDS011;10526;50.850;12.928;2023-05-20T22:20:38;39.13;;;26.70;;
20729;SDS011;10526;50.850;12.928;2023-05-20T22:25:01;37.75;;;25.27;;
20729;SDS011;10526;50.850;12.928;2023-05-20T22:29:23;41.95;;;27.65;;
20729;SDS011;10526;50.850;12.928;2023-05-20T22:33:45;38.63;;;26.80;;
20729;SDS011;10526;50.850;12.928;2023-05-20T22:38:07;36.88;;;25.27;;
20729;SDS011;10526;50.850;12.928;2023-05-20T22:42:29;38.28;;;26.02;;
20729;SDS011;10526;50.850;12.928;2023-05-20T22:46:52;40.95;;;27.08;;
20729;SDS011;10526;50.850;12.928;2023-05-20T22:51:14;38.90;;;26.48;;
20729;SDS011;10526;50.850;12.928;2023-05-20T22:55:36;40.90;;;27.48;;
20729;SDS011;10526;50.850;12.928;2023-05-20T22:59:58;40.47;;;27.98;;
20729;SDS011;10526;50.850;12.928;2023-05-20T23:04:21;37.67;;;25.95;;
20729;SDS011;10526;50.850;12.928;2023-05-20T23:08:43;38.72;;;23.92;;
20729;SDS011;10526;50.850;12.928;2023-05-20T23:13:05;36.40;;;22.35;;
20729;SDS011;10526;50.850;12.928;2023-05-20T23:17:27;30.92;;;19.85;;
20729;SDS011;10526;50.850;12.928;2023-05-20T23:21:49;29.80;;;18.75;;
20729;SDS011;10526;50.850;12.928;2023-05-20T23:26:12;30.17;;;19.90;;
20729;SDS011;10526;50.850;12.928;2023-05-20T23:30:34;26.58;;;18.17;;
20729;SDS011;10526;50.850;12.928;2023-05-20T23:34:56;28.45;;;18.17;;
20729;SDS011;10526;50.850;12.928;2023-05-20T23:39:22;29.27;;;18.90;;
20729;SDS011;10526;50.850;12.928;2023-05-20T23:43:44;29.50;;;17.90;;
20729;SDS011;10526;50.850;12.928;2023-05-20T23:48:07;30.20;;;18.35;;
20729;SDS011;10526;50.850;12.928;2023-05-20T23:52:33;29.52;;;18.35;;
20729;SDS011;10526;50.850;12.928;2023-05-20T23:56:55;28.08;;;18.67;;
